This is the latest recevied weather packets stored in our database for station/object KQ4PPF. If no packets are shown the sender has not sent any weather packets the latest 10 day(s).
| Time | Temp. | Humidity | Pressure | Rain* | Wind** | Luminosity | Snow |
|---|---|---|---|---|---|---|---|
| 1777314710 | 23.89° C | 58% | 1017.6 hPa | 0 mm | - | 60 W/m² | - |
| 1777314407 | 23.89° C | 58% | 1017.5 hPa | 0 mm | - | 181 W/m² | - |
| 1777314104 | 23.89° C | 58% | 1017.7 hPa | 0 mm | - | 112 W/m² | - |
| 1777313803 | 23.89° C | 57% | 1017.7 hPa | 0 mm | - | 223 W/m² | - |
| 1777313499 | 23.89° C | 58% | 1017.9 hPa | 0 mm | - | 460 W/m² | - |
| 1777313197 | 23.89° C | 57% | 1017.9 hPa | 0 mm | - | 197 W/m² | - |
| 1777312892 | 23.33° C | 60% | 1017.9 hPa | 0 mm | - | 357 W/m² | - |
| 1777312589 | 22.78° C | 61% | 1018.4 hPa | 0 mm | - | 738 W/m² | - |
| 1777312287 | 23.33° C | 58% | 1018.2 hPa | 0 mm | - | 741 W/m² | - |
| 1777311984 | 23.33° C | 60% | 1018.5 hPa | 0 mm | - | 682 W/m² | - |
| 1777311680 | 22.78° C | 60% | 1018.3 hPa | 0 mm | - | 645 W/m² | - |
| 1777311378 | 23.33° C | 59% | 1018.5 hPa | 0 mm | - | 676 W/m² | - |
| 1777311075 | 23.89° C | 58% | 1018.4 hPa | 0 mm | - | 743 W/m² | - |
| 1777310773 | 23.33° C | 61% | 1018.5 hPa | 0 mm | - | 782 W/m² | - |
| 1777310470 | 23.89° C | 61% | 1018.5 hPa | 0 mm | - | 758 W/m² | - |
| 1777310167 | 23.33° C | 60% | 1018.5 hPa | 0 mm | - | 717 W/m² | - |
| 1777309864 | 23.89° C | 60% | 1018.1 hPa | 0 mm | - | 753 W/m² | - |
| 1777309563 | 23.33° C | 63% | 1018.5 hPa | 0 mm | - | 707 W/m² | - |
| 1777309259 | 22.22° C | 64% | 1018.6 hPa | 0 mm | - | 683 W/m² | - |
| 1777308958 | 22.22° C | 64% | 1018.3 hPa | 0 mm | - | 637 W/m² | - |
| 1777308653 | 22.78° C | 63% | 1018.5 hPa | 0 mm | - | 757 W/m² | - |
| 1777308349 | 22.78° C | 62% | 1018.5 hPa | 0 mm | - | 790 W/m² | - |
| 1777308049 | 22.22° C | 63% | 1018.7 hPa | 0 mm | - | 799 W/m² | - |
| 1777307748 | 22.22° C | 65% | 1018.8 hPa | 0 mm | - | 819 W/m² | - |
| 1777307444 | 21.67° C | 65% | 1019.1 hPa | 0 mm | - | 679 W/m² | - |
* Rain latest hour (hover to see other rain measurements)
** Current wind speed in m/s (hover to see current wind gust speed)